createdAt,value
2023-05-18T00:00:52.874Z,66.00952148
2023-05-18T00:01:53.800Z,66.11328125
2023-05-18T00:02:54.896Z,66.00952148
2023-05-18T00:03:56.294Z,66.24755859
2023-05-18T00:04:56.813Z,66.14379883
2023-05-18T00:05:57.876Z,66.44897461
2023-05-18T00:06:58.855Z,66.44897461
2023-05-18T00:08:00.590Z,66.34521484
2023-05-18T00:09:31.841Z,66.55273438
2023-05-18T00:10:33.234Z,66.44897461
2023-05-18T00:11:33.732Z,66.44897461
2023-05-18T00:12:34.839Z,66.44897461
2023-05-18T00:13:35.814Z,66.24755859
2023-05-18T00:14:37.095Z,66.24755859
2023-05-18T00:15:38.352Z,66.34521484
2023-05-18T00:16:39.644Z,66.44897461
2023-05-18T00:17:40.880Z,66.34521484
2023-05-18T00:18:41.887Z,66.24755859
2023-05-18T00:19:43.085Z,66.24755859
2023-05-18T00:20:44.673Z,66.24755859
2023-05-18T00:21:45.860Z,66.44897461
2023-05-18T00:22:46.830Z,66.68701172
2023-05-18T00:23:47.862Z,66.68701172
2023-05-18T00:24:48.820Z,66.58325195
2023-05-18T00:25:49.884Z,66.78466797
2023-05-18T00:26:50.823Z,66.88842773
2023-05-18T00:27:51.935Z,66.88842773
2023-05-18T00:28:53.102Z,66.78466797
2023-05-18T00:29:54.255Z,66.78466797
2023-05-18T00:30:55.655Z,66.88842773
2023-05-18T00:31:56.941Z,66.78466797
2023-05-18T00:32:57.866Z,66.78466797
2023-05-18T00:33:58.969Z,66.88842773
2023-05-18T00:35:31.395Z,67.19360352
2023-05-18T00:36:32.628Z,67.19360352
2023-05-18T00:37:34.081Z,66.9921875
2023-05-18T00:38:35.120Z,67.29736328
2023-05-18T00:39:35.622Z,67.40112305
2023-05-18T00:40:36.835Z,67.53540039
2023-05-18T00:41:37.856Z,67.53540039
2023-05-18T00:42:38.820Z,67.43164063
2023-05-18T00:43:39.812Z,67.53540039
2023-05-18T00:44:40.946Z,67.63916016
2023-05-18T00:45:42.396Z,67.73681641
2023-05-18T00:46:43.849Z,67.63916016
2023-05-18T00:47:44.818Z,67.63916016
2023-05-18T00:48:45.260Z,67.63916016
2023-05-18T00:49:45.767Z,67.53540039
2023-05-18T00:50:47.175Z,67.63916016
2023-05-18T00:51:48.357Z,67.63916016
2023-05-18T00:52:49.583Z,67.53540039
2023-05-18T00:53:50.835Z,67.53540039
2023-05-18T00:54:51.900Z,67.43164063
2023-05-18T00:55:53.377Z,67.43164063
2023-05-18T00:56:54.357Z,67.73681641
2023-05-18T00:57:55.593Z,67.97485352
2023-05-18T00:58:56.868Z,68.18237305
2023-05-18T00:59:57.844Z,67.97485352
2023-05-18T01:01:30.130Z,67.97485352
2023-05-18T01:02:31.163Z,67.97485352
2023-05-18T01:03:31.642Z,68.18237305
2023-05-18T01:04:32.613Z,68.2800293
2023-05-18T01:05:33.640Z,68.38378906
2023-05-18T01:06:34.053Z,68.38378906
2023-05-18T01:07:35.436Z,68.48754883
2023-05-18T01:08:36.802Z,68.18237305
2023-05-18T01:09:37.877Z,68.18237305
2023-05-18T01:10:38.869Z,68.18237305
2023-05-18T01:11:39.865Z,68.18237305
2023-05-18T01:12:40.858Z,68.2800293
2023-05-18T01:13:41.816Z,68.38378906
2023-05-18T01:14:42.880Z,68.62182617
2023-05-18T01:15:43.911Z,68.8293457
2023-05-18T01:16:45.526Z,68.62182617
2023-05-18T01:17:46.839Z,68.41430664
2023-05-18T01:18:48.144Z,68.51806641
2023-05-18T01:19:49.132Z,68.51806641
2023-05-18T01:20:49.659Z,68.62182617
2023-05-18T01:21:50.859Z,68.62182617
2023-05-18T01:22:51.858Z,68.41430664
2023-05-18T01:23:52.808Z,68.41430664
2023-05-18T01:24:53.869Z,68.41430664
2023-05-18T01:25:54.860Z,68.51806641
2023-05-18T01:26:55.816Z,68.62182617
2023-05-18T01:27:56.293Z,68.62182617
2023-05-18T01:28:57.311Z,68.72558594
2023-05-18T01:29:58.818Z,68.72558594
2023-05-18T01:31:31.149Z,68.72558594
2023-05-18T01:32:32.165Z,68.72558594
2023-05-18T01:33:32.533Z,68.62182617
2023-05-18T01:34:33.761Z,68.51806641
2023-05-18T01:35:35.122Z,68.62182617
2023-05-18T01:36:35.635Z,68.62182617
2023-05-18T01:37:36.827Z,68.62182617
2023-05-18T01:38:37.812Z,68.62182617
2023-05-18T01:39:38.847Z,68.72558594
2023-05-18T01:40:39.889Z,68.72558594
2023-05-18T01:41:40.990Z,68.8293457
2023-05-18T01:42:42.291Z,68.92700195
2023-05-18T01:43:43.590Z,69.03076172
2023-05-18T01:44:44.599Z,69.03076172
2023-05-18T01:45:45.595Z,68.92700195
2023-05-18T01:46:47.157Z,68.72558594
2023-05-18T01:47:47.692Z,68.72558594
2023-05-18T01:48:48.692Z,68.72558594
2023-05-18T01:49:49.599Z,68.8293457
2023-05-18T01:50:51.130Z,68.62182617
2023-05-18T01:51:52.610Z,68.62182617
2023-05-18T01:52:53.580Z,68.72558594
2023-05-18T01:53:54.625Z,68.96362305
2023-05-18T01:54:55.595Z,68.92700195
2023-05-18T01:55:56.622Z,68.92700195
2023-05-18T01:56:58.165Z,69.03076172
2023-05-18T01:58:30.601Z,69.03076172
2023-05-18T01:59:31.612Z,69.0612793
2023-05-18T02:00:32.648Z,69.0612793
2023-05-18T02:01:33.647Z,68.96362305
2023-05-18T02:02:35.193Z,69.0612793
2023-05-18T02:03:36.279Z,68.96362305
2023-05-18T02:04:37.103Z,68.96362305
2023-05-18T02:05:38.181Z,68.85986328
2023-05-18T02:06:39.608Z,69.0612793
2023-05-18T02:07:41.129Z,69.26879883
2023-05-18T02:08:42.308Z,69.26879883
2023-05-18T02:09:43.729Z,69.26879883
2023-05-18T02:10:44.867Z,69.26879883
2023-05-18T02:11:45.888Z,69.57397461
2023-05-18T02:12:46.917Z,69.37255859
2023-05-18T02:13:48.312Z,69.26879883
2023-05-18T02:14:49.625Z,69.26879883
2023-05-18T02:15:50.633Z,69.47021484
2023-05-18T02:16:52.176Z,69.26879883
2023-05-18T02:17:53.416Z,69.26879883
2023-05-18T02:18:54.680Z,69.16503906
2023-05-18T02:19:55.657Z,69.16503906
2023-05-18T02:20:56.228Z,69.26879883
2023-05-18T02:21:57.646Z,69.78149414
2023-05-18T02:23:29.141Z,69.67773438
2023-05-18T02:24:30.334Z,69.26879883
2023-05-18T02:25:31.788Z,69.0612793
2023-05-18T02:26:33.647Z,69.16503906
2023-05-18T02:27:34.622Z,69.16503906
2023-05-18T02:28:35.598Z,69.26879883
2023-05-18T02:29:36.854Z,69.37255859
2023-05-18T02:30:37.821Z,69.37255859
2023-05-18T02:31:39.117Z,69.37255859
2023-05-18T02:32:40.525Z,69.37255859
2023-05-18T02:33:41.970Z,69.26879883
2023-05-18T02:34:43.620Z,69.16503906
2023-05-18T02:35:44.618Z,69.16503906
2023-05-18T02:36:45.105Z,69.0612793
2023-05-18T02:37:46.362Z,69.23828125
2023-05-18T02:38:47.404Z,69.23828125
2023-05-18T02:39:48.865Z,68.62182617
2023-05-18T02:40:50.118Z,68.10913086
2023-05-18T02:41:50.524Z,68.21289063
2023-05-18T02:42:51.889Z,68.31665039
2023-05-18T02:43:53.422Z,68.31665039
2023-05-18T02:44:54.593Z,68.41430664
2023-05-18T02:45:55.160Z,68.8293457
2023-05-18T02:46:56.502Z,68.92700195
2023-05-18T02:48:29.123Z,68.8293457
2023-05-18T02:49:29.626Z,68.51806641
2023-05-18T02:50:30.871Z,68.31665039
2023-05-18T02:51:31.841Z,68.10913086
2023-05-18T02:52:33.126Z,67.80395508
2023-05-18T02:53:34.091Z,67.97485352
2023-05-18T02:54:34.519Z,67.97485352
2023-05-18T02:55:35.821Z,67.87109375
2023-05-18T02:56:37.120Z,67.87109375
2023-05-18T02:57:38.303Z,68.00537109
2023-05-18T02:58:38.903Z,67.7734375
2023-05-18T02:59:39.880Z,67.56591797
2023-05-18T03:00:40.795Z,67.66967773
2023-05-18T03:01:42.176Z,67.66967773
2023-05-18T03:02:43.260Z,67.66967773
2023-05-18T03:03:43.816Z,67.7734375
2023-05-18T03:04:45.521Z,67.4621582
2023-05-18T03:05:45.834Z,67.4621582
2023-05-18T03:06:46.912Z,67.4621582
2023-05-18T03:07:47.984Z,67.66967773
2023-05-18T03:08:49.354Z,67.4621582
2023-05-18T03:09:50.348Z,67.4621582
2023-05-18T03:10:51.582Z,67.56591797
2023-05-18T03:11:52.619Z,67.66967773
2023-05-18T03:12:53.192Z,67.66967773
2023-05-18T03:13:54.362Z,67.66967773
2023-05-18T03:14:55.445Z,67.56591797
2023-05-18T03:15:56.669Z,67.66967773
2023-05-18T03:16:58.254Z,67.35839844
2023-05-18T03:18:29.625Z,67.4621582
2023-05-18T03:19:30.876Z,67.56591797
2023-05-18T03:20:31.871Z,67.4621582
2023-05-18T03:21:32.831Z,67.4621582
2023-05-18T03:22:34.123Z,67.26074219
2023-05-18T03:23:35.170Z,67.26074219
2023-05-18T03:24:35.742Z,67.26074219
2023-05-18T03:25:36.837Z,67.26074219
2023-05-18T03:26:37.307Z,67.35839844
2023-05-18T03:27:38.607Z,67.26074219
2023-05-18T03:28:39.181Z,67.26074219
2023-05-18T03:29:40.370Z,67.15698242
2023-05-18T03:30:41.431Z,67.15698242
2023-05-18T03:31:42.655Z,67.35839844
2023-05-18T03:32:43.717Z,67.35839844
2023-05-18T03:33:44.077Z,67.35839844
2023-05-18T03:34:45.397Z,67.56591797
2023-05-18T03:35:48.459Z,67.66967773
2023-05-18T03:36:47.694Z,67.35839844
2023-05-18T03:37:48.606Z,67.56591797
2023-05-18T03:38:49.048Z,67.56591797
2023-05-18T03:39:50.503Z,67.90161133
2023-05-18T03:40:52.088Z,67.80395508
2023-05-18T03:41:52.494Z,67.80395508
2023-05-18T03:42:53.853Z,67.59643555
2023-05-18T03:43:54.857Z,67.49267578
2023-05-18T03:44:55.880Z,67.70019531
2023-05-18T03:46:28.257Z,67.59643555
2023-05-18T03:47:29.110Z,67.70019531
2023-05-18T03:48:30.126Z,67.80395508
2023-05-18T03:49:30.664Z,67.70019531
2023-05-18T03:50:31.889Z,67.70019531
2023-05-18T03:51:33.435Z,68.00537109
2023-05-18T03:52:34.660Z,67.80395508
2023-05-18T03:53:35.619Z,67.70019531
2023-05-18T03:54:36.111Z,67.70019531
2023-05-18T03:55:37.371Z,67.80395508
2023-05-18T03:56:38.009Z,68.00537109
2023-05-18T03:57:40.133Z,68.21289063
2023-05-18T03:58:40.605Z,68.21289063
2023-05-18T03:59:41.904Z,68.31665039
2023-05-18T04:00:43.702Z,68.10913086
2023-05-18T04:01:45.219Z,68.21289063
2023-05-18T04:02:46.747Z,68.31665039
2023-05-18T04:03:48.197Z,68.31665039
2023-05-18T04:04:49.307Z,68.31665039
2023-05-18T04:05:50.626Z,68.21289063
2023-05-18T04:06:51.120Z,68.31665039
2023-05-18T04:07:52.129Z,68.00537109
2023-05-18T04:08:53.318Z,68.10913086
2023-05-18T04:09:54.329Z,68.10913086
2023-05-18T04:10:55.404Z,68.10913086
2023-05-18T04:11:56.856Z,68.10913086
2023-05-18T04:13:28.642Z,68.21289063
2023-05-18T04:14:29.635Z,68.21289063
2023-05-18T04:15:30.788Z,68.10913086
2023-05-18T04:16:31.718Z,68.10913086
2023-05-18T04:17:32.657Z,68.10913086
2023-05-18T04:18:33.610Z,68.10913086
2023-05-18T04:19:34.183Z,67.90161133
2023-05-18T04:20:35.332Z,68.00537109
2023-05-18T04:21:36.506Z,68.10913086
2023-05-18T04:22:37.641Z,67.90161133
2023-05-18T04:23:38.074Z,68.00537109
2023-05-18T04:24:39.310Z,68.00537109
2023-05-18T04:25:40.385Z,68.10913086
2023-05-18T04:26:41.787Z,68.10913086
2023-05-18T04:27:43.158Z,68.45092773
2023-05-18T04:28:44.351Z,68.54858398
2023-05-18T04:29:45.310Z,68.75610352
2023-05-18T04:30:46.291Z,68.85986328
2023-05-18T04:31:47.392Z,68.85986328
2023-05-18T04:32:47.901Z,68.85986328
2023-05-18T04:33:48.285Z,69.0612793
2023-05-18T04:34:49.394Z,69.03076172
2023-05-18T04:35:50.589Z,68.72558594
2023-05-18T04:36:51.617Z,68.62182617
2023-05-18T04:37:52.622Z,68.62182617
2023-05-18T04:38:53.807Z,68.62182617
2023-05-18T04:39:55.132Z,68.62182617
2023-05-18T04:40:55.514Z,68.51806641
2023-05-18T04:42:27.612Z,68.41430664
2023-05-18T04:43:28.094Z,68.41430664
2023-05-18T04:44:29.420Z,68.31665039
2023-05-18T04:45:30.567Z,68.07861328
2023-05-18T04:46:31.407Z,68.07861328
2023-05-18T04:47:32.653Z,68.18237305
2023-05-18T04:48:33.607Z,68.18237305
2023-05-18T04:49:34.651Z,68.18237305
2023-05-18T04:50:35.623Z,68.2800293
2023-05-18T04:51:36.610Z,67.97485352
2023-05-18T04:52:37.684Z,67.7734375
2023-05-18T04:53:38.645Z,67.87109375
2023-05-18T04:54:39.639Z,68.07861328
2023-05-18T04:55:40.866Z,67.87109375
2023-05-18T04:56:41.708Z,67.7734375
2023-05-18T04:57:42.823Z,67.87109375
2023-05-18T04:58:43.816Z,67.56591797
2023-05-18T04:59:44.908Z,67.56591797
2023-05-18T05:00:45.792Z,67.56591797
2023-05-18T05:01:47.192Z,67.97485352
2023-05-18T05:02:48.481Z,67.97485352
2023-05-18T05:03:49.526Z,67.7734375
2023-05-18T05:04:50.878Z,67.7734375
2023-05-18T05:05:52.245Z,67.66967773
2023-05-18T05:06:53.480Z,67.66967773
2023-05-18T05:07:54.975Z,68.07861328
2023-05-18T05:09:29.158Z,68.18237305
2023-05-18T05:10:31.452Z,68.51806641
2023-05-18T05:11:33.137Z,68.62182617
2023-05-18T05:12:34.632Z,68.72558594
2023-05-18T05:13:36.729Z,68.62182617
2023-05-18T05:14:38.178Z,68.72558594
2023-05-18T05:15:39.768Z,68.8293457
2023-05-18T05:16:41.146Z,68.72558594
2023-05-18T05:17:42.705Z,68.72558594
2023-05-18T05:18:45.933Z,69.13452148
2023-05-18T05:19:45.404Z,69.23828125
2023-05-18T05:20:47.212Z,69.23828125
2023-05-18T05:21:48.427Z,69.13452148
2023-05-18T05:22:49.943Z,69.03076172
2023-05-18T05:23:50.946Z,69.03076172
2023-05-18T05:24:52.486Z,69.23828125
2023-05-18T05:25:54.038Z,69.13452148
2023-05-18T05:26:55.862Z,69.23828125
2023-05-18T05:28:27.600Z,69.43969727
2023-05-18T05:29:28.616Z,69.6472168
2023-05-18T05:30:30.111Z,69.43969727
2023-05-18T05:31:31.190Z,69.3359375
2023-05-18T05:32:32.118Z,69.13452148
2023-05-18T05:33:33.106Z,69.03076172
2023-05-18T05:34:34.118Z,69.23828125
2023-05-18T05:35:35.513Z,69.13452148
2023-05-18T05:36:36.637Z,68.92700195
2023-05-18T05:37:37.648Z,68.62182617
2023-05-18T05:38:38.646Z,68.92700195
2023-05-18T05:39:39.122Z,69.43969727
2023-05-18T05:40:40.331Z,69.23828125
2023-05-18T05:41:41.346Z,69.23828125
2023-05-18T05:42:42.368Z,69.13452148
2023-05-18T05:43:43.661Z,68.92700195
2023-05-18T05:44:44.841Z,68.92700195
2023-05-18T05:45:45.909Z,68.92700195
2023-05-18T05:46:47.397Z,68.8293457
2023-05-18T05:47:48.337Z,69.03076172
2023-05-18T05:48:49.329Z,68.8293457
2023-05-18T05:49:50.301Z,68.62182617
2023-05-18T05:50:51.427Z,68.62182617
2023-05-18T05:51:52.328Z,68.51806641
2023-05-18T05:52:53.325Z,68.72558594
2023-05-18T05:53:54.377Z,68.92700195
2023-05-18T05:55:26.613Z,69.03076172
2023-05-18T05:56:27.662Z,68.92700195
2023-05-18T05:57:29.161Z,69.03076172
2023-05-18T05:58:29.570Z,69.03076172
2023-05-18T05:59:30.830Z,68.89648438
2023-05-18T06:00:31.809Z,68.89648438
2023-05-18T06:01:32.905Z,69.00024414
2023-05-18T06:02:34.492Z,69.10400391
2023-05-18T06:03:36.259Z,70.02563477
2023-05-18T06:04:36.513Z,69.17114258
2023-05-18T06:05:37.328Z,68.5546875
2023-05-18T06:06:38.608Z,68.5546875
2023-05-18T06:07:39.631Z,68.5546875
2023-05-18T06:08:40.602Z,68.65844727
2023-05-18T06:09:41.618Z,68.35327148
2023-05-18T06:10:42.808Z,68.35327148
2023-05-18T06:11:43.875Z,68.5546875
2023-05-18T06:12:44.876Z,68.76220703
2023-05-18T06:13:45.291Z,68.24951172
2023-05-18T06:14:45.721Z,68.14575195
2023-05-18T06:15:47.100Z,68.35327148
2023-05-18T06:16:48.215Z,68.45703125
2023-05-18T06:17:48.719Z,68.5546875
2023-05-18T06:18:49.940Z,67.94433594
2023-05-18T06:19:51.313Z,67.94433594
2023-05-18T06:20:52.339Z,68.0480957
2023-05-18T06:21:53.444Z,68.24951172
2023-05-18T06:23:26.170Z,68.45703125
2023-05-18T06:24:26.524Z,68.5546875
2023-05-18T06:25:27.883Z,68.24951172
2023-05-18T06:26:28.849Z,68.24951172
2023-05-18T06:27:30.111Z,68.35327148
2023-05-18T06:28:31.126Z,68.8659668
2023-05-18T06:29:32.118Z,68.76220703
2023-05-18T06:30:33.121Z,68.5546875
2023-05-18T06:31:34.119Z,68.5546875
2023-05-18T06:32:34.722Z,68.62792969
2023-05-18T06:33:35.938Z,68.21899414
2023-05-18T06:34:37.355Z,68.32275391
2023-05-18T06:35:38.349Z,68.42041016
2023-05-18T06:36:39.620Z,68.32275391
2023-05-18T06:37:41.216Z,68.52416992
2023-05-18T06:38:41.643Z,68.62792969
2023-05-18T06:39:42.111Z,67.70629883
2023-05-18T06:40:43.652Z,67.91381836
2023-05-18T06:41:44.919Z,67.81005859
2023-05-18T06:42:46.416Z,68.01147461
2023-05-18T06:43:47.865Z,67.91381836
2023-05-18T06:44:49.140Z,67.50488281
2023-05-18T06:45:50.160Z,67.60253906
2023-05-18T06:46:51.120Z,68.18847656
2023-05-18T06:47:52.663Z,67.57202148
2023-05-18T06:48:53.638Z,67.37060547
2023-05-18T06:49:54.646Z,67.06542969
2023-05-18T06:51:25.929Z,67.47436523
2023-05-18T06:52:28.156Z,67.67578125
2023-05-18T06:53:29.134Z,67.16308594
2023-05-18T06:54:30.123Z,67.06542969
2023-05-18T06:55:31.377Z,67.47436523
2023-05-18T06:56:32.126Z,67.88330078
2023-05-18T06:57:33.139Z,67.57202148
2023-05-18T06:58:34.143Z,67.47436523
2023-05-18T06:59:35.354Z,67.57202148
2023-05-18T07:00:36.710Z,67.98095703
2023-05-18T07:01:37.726Z,67.88330078
2023-05-18T07:02:39.150Z,67.16308594
2023-05-18T07:03:40.190Z,67.2668457
2023-05-18T07:04:41.131Z,67.57202148
2023-05-18T07:05:42.372Z,67.47436523
2023-05-18T07:06:42.764Z,67.37060547
2023-05-18T07:07:43.947Z,67.34008789
2023-05-18T07:08:44.419Z,67.43774414
2023-05-18T07:09:45.940Z,67.95043945
2023-05-18T07:10:46.884Z,67.95043945
2023-05-18T07:11:47.832Z,67.54150391
2023-05-18T07:12:48.805Z,67.43774414
2023-05-18T07:13:49.882Z,67.43774414
2023-05-18T07:14:50.875Z,67.84667969
2023-05-18T07:15:51.895Z,67.20581055
2023-05-18T07:16:52.854Z,67.51098633
2023-05-18T07:17:53.877Z,67.10205078
2023-05-18T07:19:25.736Z,67.3034668
2023-05-18T07:20:26.790Z,66.86401367
2023-05-18T07:21:28.172Z,66.86401367
2023-05-18T07:22:29.110Z,66.35742188
2023-05-18T07:23:30.150Z,66.25366211
2023-05-18T07:24:31.181Z,65.7409668
2023-05-18T07:25:31.823Z,65.53955078
2023-05-18T07:26:32.110Z,65.64331055
2023-05-18T07:27:33.127Z,65.87524414
2023-05-18T07:28:34.114Z,65.97900391
2023-05-18T07:29:35.308Z,65.97900391
2023-05-18T07:30:36.415Z,66.18041992
2023-05-18T07:31:37.875Z,66.58935547
2023-05-18T07:32:38.846Z,66.38793945
2023-05-18T07:33:41.139Z,66.69311523
2023-05-18T07:34:40.884Z,66.90063477
2023-05-18T07:35:42.490Z,67.10205078
2023-05-18T07:36:43.838Z,67.40722656
2023-05-18T07:37:44.885Z,67.20581055
2023-05-18T07:38:45.835Z,67.10205078
2023-05-18T07:39:47.004Z,67.10205078
2023-05-18T07:40:48.367Z,66.99829102
2023-05-18T07:41:49.460Z,66.796875
2023-05-18T07:42:50.903Z,66.99829102
2023-05-18T07:43:52.125Z,66.69311523
2023-05-18T07:44:53.164Z,66.49169922
2023-05-18T07:45:54.647Z,66.796875
2023-05-18T07:47:26.271Z,66.90063477
2023-05-18T07:48:27.647Z,67.17529297
2023-05-18T07:49:28.098Z,67.17529297
2023-05-18T07:50:28.807Z,67.68188477
2023-05-18T07:51:30.120Z,67.37670898
2023-05-18T07:52:31.694Z,67.0715332
2023-05-18T07:53:32.251Z,66.96777344
2023-05-18T07:54:33.352Z,67.44995117
2023-05-18T07:55:34.743Z,66.83349609
2023-05-18T07:56:36.175Z,67.34619141
2023-05-18T07:57:36.853Z,66.69921875
2023-05-18T07:58:37.937Z,65.67993164
2023-05-18T07:59:39.348Z,66.29638672
2023-05-18T08:00:40.469Z,65.58227539
2023-05-18T08:01:42.061Z,65.37475586
2023-05-18T08:02:44.096Z,65.17333984
2023-05-18T08:03:44.988Z,65.78369141
2023-05-18T08:04:45.654Z,65.37475586
2023-05-18T08:05:46.654Z,65.64941406
2023-05-18T08:06:47.134Z,65.0390625
2023-05-18T08:07:48.455Z,65.0390625
2023-05-18T08:08:49.830Z,65.52124023
2023-05-18T08:09:50.915Z,65.3137207
2023-05-18T08:10:52.410Z,64.39819336
2023-05-18T08:11:53.860Z,64.0625
2023-05-18T08:13:25.281Z,64.16625977
2023-05-18T08:14:25.767Z,63.14697266
2023-05-18T08:15:27.651Z,63.5559082
2023-05-18T08:16:29.187Z,63.5559082
2023-05-18T08:17:30.284Z,62.8112793
2023-05-18T08:18:30.741Z,63.42163086
2023-05-18T08:19:32.675Z,62.70751953
2023-05-18T08:20:34.143Z,62.50610352
2023-05-18T08:21:35.652Z,61.79199219
2023-05-18T08:22:37.159Z,61.76147461
2023-05-18T08:23:37.628Z,62.06665039
2023-05-18T08:24:38.922Z,62.47558594
2023-05-18T08:25:40.512Z,62.47558594
2023-05-18T08:26:41.912Z,62.47558594
2023-05-18T08:27:43.724Z,62.17041016
2023-05-18T08:28:44.940Z,61.35864258
2023-05-18T08:29:46.395Z,61.76147461
2023-05-18T08:30:47.356Z,61.66381836
2023-05-18T08:31:49.687Z,61.15112305
2023-05-18T08:32:49.362Z,61.15112305
2023-05-18T08:33:50.393Z,60.74829102
2023-05-18T08:34:51.368Z,61.02294922
2023-05-18T08:35:52.362Z,60.33935547
2023-05-18T08:37:24.033Z,59.93041992
2023-05-18T08:38:26.173Z,60.44311523
2023-05-18T08:39:26.607Z,61.0534668
2023-05-18T08:40:27.010Z,61.25488281
2023-05-18T08:41:27.441Z,61.0534668
2023-05-18T08:42:41.497Z,61.15112305
2023-05-18T08:43:30.628Z,61.56005859
2023-05-18T08:44:31.639Z,60.94970703
2023-05-18T08:45:32.868Z,61.0534668
2023-05-18T08:46:33.636Z,61.0534668
2023-05-18T08:47:34.730Z,61.15112305
2023-05-18T08:48:35.674Z,60.84594727
2023-05-18T08:49:36.650Z,60.84594727
2023-05-18T08:50:37.863Z,60.74829102
2023-05-18T08:51:38.857Z,60.03417969
2023-05-18T08:52:39.838Z,60.64453125
2023-05-18T08:53:40.853Z,60.33935547
2023-05-18T08:54:41.952Z,60.03417969
2023-05-18T08:55:43.136Z,60.33935547
2023-05-18T08:56:44.649Z,61.0534668
2023-05-18T08:57:45.380Z,60.94970703
2023-05-18T08:58:46.918Z,60.64453125
2023-05-18T08:59:48.455Z,60.54077148
2023-05-18T09:00:49.825Z,60.44311523
2023-05-18T09:01:50.895Z,61.76147461
2023-05-18T09:02:52.041Z,61.22436523
2023-05-18T09:04:24.198Z,61.328125
2023-05-18T09:05:25.234Z,61.43188477
2023-05-18T09:06:26.113Z,60.51635742
2023-05-18T09:07:27.127Z,60.51635742
2023-05-18T09:08:28.112Z,60.79101563
2023-05-18T09:09:29.143Z,59.97924805
2023-05-18T09:10:29.542Z,59.16137695
2023-05-18T09:11:30.049Z,59.60083008
2023-05-18T09:12:31.126Z,59.2956543
2023-05-18T09:13:32.201Z,60.21118164
2023-05-18T09:14:33.111Z,59.87548828
2023-05-18T09:15:34.139Z,59.97924805
2023-05-18T09:16:34.735Z,59.16137695
2023-05-18T09:17:35.858Z,59.5703125
2023-05-18T09:18:36.902Z,59.67407227
2023-05-18T09:19:37.867Z,59.26513672
2023-05-18T09:20:38.861Z,59.46655273
2023-05-18T09:21:40.135Z,59.46655273
2023-05-18T09:22:41.199Z,59.87548828
2023-05-18T09:23:42.130Z,60.18066406
2023-05-18T09:24:43.692Z,59.87548828
2023-05-18T09:25:44.923Z,60.38208008
2023-05-18T09:26:46.693Z,59.74731445
2023-05-18T09:27:47.627Z,59.94873047
2023-05-18T09:28:48.651Z,59.33837891
2023-05-18T09:29:49.853Z,58.63037109
2023-05-18T09:30:50.886Z,58.02001953
2023-05-18T09:31:51.929Z,57.8125
2023-05-18T09:32:53.853Z,57.91625977
2023-05-18T09:34:25.642Z,58.83178711
2023-05-18T09:35:26.690Z,58.93554688
2023-05-18T09:36:28.164Z,58.50219727
2023-05-18T09:37:28.552Z,58.19702148
2023-05-18T09:38:29.637Z,57.98950195
2023-05-18T09:39:30.607Z,57.8918457
2023-05-18T09:40:31.112Z,58.19702148
2023-05-18T09:41:32.167Z,57.68432617
2023-05-18T09:42:33.119Z,57.55615234
2023-05-18T09:43:34.124Z,57.55615234
2023-05-18T09:44:35.130Z,57.96508789
2023-05-18T09:45:36.154Z,57.55615234
2023-05-18T09:46:37.706Z,58.06274414
2023-05-18T09:47:38.235Z,57.65991211
2023-05-18T09:48:38.582Z,57.35473633
2023-05-18T09:49:39.843Z,57.45849609
2023-05-18T09:50:40.840Z,57.65991211
2023-05-18T09:51:41.288Z,57.65991211
2023-05-18T09:52:42.376Z,57.65991211
2023-05-18T09:53:43.620Z,57.35473633
2023-05-18T09:54:44.952Z,56.9519043
2023-05-18T09:55:46.371Z,57.25097656
2023-05-18T09:56:58.489Z,57.25097656
2023-05-18T09:57:48.377Z,56.43920898
2023-05-18T09:58:49.364Z,55.93261719
2023-05-18T09:59:50.381Z,55.93261719
2023-05-18T10:00:51.470Z,56.1340332
2023-05-18T10:02:23.714Z,56.54296875
2023-05-18T10:03:24.618Z,56.1340332
2023-05-18T10:04:25.673Z,56.26220703
2023-05-18T10:05:26.628Z,57.08007813
2023-05-18T10:06:27.669Z,57.37915039
2023-05-18T10:07:28.646Z,57.48291016
2023-05-18T10:08:29.620Z,57.25097656
2023-05-18T10:09:30.111Z,56.43920898
2023-05-18T10:10:31.393Z,56.54296875
2023-05-18T10:11:31.517Z,57.25097656
2023-05-18T10:12:32.867Z,57.35473633
2023-05-18T10:13:33.259Z,56.9519043
2023-05-18T10:14:33.693Z,56.23779297
2023-05-18T10:15:34.099Z,56.31103516
2023-05-18T10:16:35.170Z,56.51855469
2023-05-18T10:17:36.298Z,56.21337891
2023-05-18T10:18:37.774Z,55.93261719
2023-05-18T10:19:38.080Z,55.62744141
2023-05-18T10:20:39.316Z,56.34155273
2023-05-18T10:21:40.340Z,55.93261719
2023-05-18T10:22:41.407Z,55.83496094
2023-05-18T10:23:42.627Z,56.21337891
2023-05-18T10:24:43.626Z,55.60302734
2023-05-18T10:25:44.638Z,55.60302734
2023-05-18T10:26:45.621Z,55.70678711
2023-05-18T10:27:47.185Z,55.40161133
2023-05-18T10:28:48.161Z,55.40161133
2023-05-18T10:29:49.327Z,55.93261719
2023-05-18T10:30:50.374Z,55.73120117
2023-05-18T10:31:51.620Z,56.03637695
2023-05-18T10:33:29.072Z,56.23779297
2023-05-18T10:34:25.129Z,56.1340332
2023-05-18T10:35:26.129Z,56.03637695
2023-05-18T10:36:26.550Z,56.23779297
2023-05-18T10:37:27.849Z,56.1340332
2023-05-18T10:38:29.648Z,56.43920898
2023-05-18T10:39:30.632Z,56.54296875
2023-05-18T10:40:31.872Z,57.15332031
2023-05-18T10:41:32.065Z,56.23779297
2023-05-18T10:42:33.164Z,56.23779297
2023-05-18T10:43:34.238Z,55.73120117
2023-05-18T10:44:34.564Z,55.83496094
2023-05-18T10:45:35.857Z,55.62744141
2023-05-18T10:46:37.063Z,55.83496094
2023-05-18T10:47:38.381Z,55.90820313
2023-05-18T10:48:38.783Z,55.60302734
2023-05-18T10:49:39.641Z,54.99267578
2023-05-18T10:50:40.650Z,55.49926758
2023-05-18T10:51:42.145Z,55.60302734
2023-05-18T10:52:43.139Z,55.20019531
2023-05-18T10:53:44.682Z,55.20019531
2023-05-18T10:54:45.641Z,55.20019531
2023-05-18T10:55:46.649Z,54.48608398
2023-05-18T10:56:47.638Z,54.99267578
2023-05-18T10:57:48.642Z,54.89501953
2023-05-18T10:58:49.106Z,54.99267578
2023-05-18T10:59:50.349Z,54.79125977
2023-05-18T11:00:51.878Z,54.26025391
2023-05-18T11:02:23.093Z,54.46166992
2023-05-18T11:03:24.346Z,53.75366211
2023-05-18T11:04:25.688Z,53.34472656
2023-05-18T11:05:26.768Z,54.1809082
2023-05-18T11:06:27.683Z,53.67431641
2023-05-18T11:07:28.626Z,53.87573242
2023-05-18T11:08:29.664Z,53.47290039
2023-05-18T11:09:30.700Z,53.97949219
2023-05-18T11:10:31.951Z,53.47290039
2023-05-18T11:11:33.142Z,53.67431641
2023-05-18T11:12:34.165Z,53.57666016
2023-05-18T11:13:35.139Z,53.77807617
2023-05-18T11:14:36.174Z,53.97949219